sensor_id;sensor_type;location;lat;lon;timestamp;temperature;humidity
53045;DHT22;38930;52.766;6.884;2023-05-10T00:01:23;14.30;99.90
53045;DHT22;38930;52.766;6.884;2023-05-10T00:03:48;14.40;99.90
53045;DHT22;38930;52.766;6.884;2023-05-10T00:06:14;14.20;99.90
53045;DHT22;38930;52.766;6.884;2023-05-10T00:08:40;14.10;99.90
53045;DHT22;38930;52.766;6.884;2023-05-10T00:11:06;14.00;99.90
53045;DHT22;38930;52.766;6.884;2023-05-10T00:13:31;14.00;99.90
53045;DHT22;38930;52.766;6.884;2023-05-10T00:15:57;13.90;99.90
53045;DHT22;38930;52.766;6.884;2023-05-10T00:18:23;13.80;99.90
53045;DHT22;38930;52.766;6.884;2023-05-10T00:20:48;13.70;99.90
53045;DHT22;38930;52.766;6.884;2023-05-10T00:23:14;13.70;99.90
53045;DHT22;38930;52.766;6.884;2023-05-10T00:25:40;13.70;99.90
53045;DHT22;38930;52.766;6.884;2023-05-10T00:28:05;13.60;99.90
53045;DHT22;38930;52.766;6.884;2023-05-10T00:30:31;13.70;99.90
53045;DHT22;38930;52.766;6.884;2023-05-10T00:32:57;13.60;99.90
53045;DHT22;38930;52.766;6.884;2023-05-10T00:35:22;13.60;99.90
53045;DHT22;38930;52.766;6.884;2023-05-10T00:37:48;13.60;99.90
53045;DHT22;38930;52.766;6.884;2023-05-10T00:40:14;13.60;99.90
53045;DHT22;38930;52.766;6.884;2023-05-10T00:42:39;13.50;99.90
53045;DHT22;38930;52.766;6.884;2023-05-10T00:45:06;13.50;99.90
53045;DHT22;38930;52.766;6.884;2023-05-10T00:47:32;13.50;99.90
53045;DHT22;38930;52.766;6.884;2023-05-10T00:49:58;13.50;99.90
53045;DHT22;38930;52.766;6.884;2023-05-10T00:52:26;13.40;99.90
53045;DHT22;38930;52.766;6.884;2023-05-10T00:54:52;13.40;99.90
53045;DHT22;38930;52.766;6.884;2023-05-10T00:57:18;13.40;99.90
53045;DHT22;38930;52.766;6.884;2023-05-10T00:59:44;13.40;99.90
53045;DHT22;38930;52.766;6.884;2023-05-10T01:02:11;13.40;99.90
53045;DHT22;38930;52.766;6.884;2023-05-10T01:04:37;13.30;99.90
53045;DHT22;38930;52.766;6.884;2023-05-10T01:07:03;13.30;99.90
53045;DHT22;38930;52.766;6.884;2023-05-10T01:09:29;13.30;99.90
53045;DHT22;38930;52.766;6.884;2023-05-10T01:11:55;13.40;99.90
53045;DHT22;38930;52.766;6.884;2023-05-10T01:14:21;13.30;99.90
53045;DHT22;38930;52.766;6.884;2023-05-10T01:16:49;13.30;99.90
53045;DHT22;38930;52.766;6.884;2023-05-10T01:19:26;13.30;99.90
53045;DHT22;38930;52.766;6.884;2023-05-10T01:21:58;13.30;99.90
53045;DHT22;38930;52.766;6.884;2023-05-10T01:36:01;13.20;99.90
53045;DHT22;38930;52.766;6.884;2023-05-10T01:38:39;13.20;99.90
53045;DHT22;38930;52.766;6.884;2023-05-10T01:41:34;13.20;99.90
53045;DHT22;38930;52.766;6.884;2023-05-10T01:46:51;13.20;99.90
53045;DHT22;38930;52.766;6.884;2023-05-10T01:49:31;13.20;99.90
53045;DHT22;38930;52.766;6.884;2023-05-10T01:52:08;13.60;99.90
53045;DHT22;38930;52.766;6.884;2023-05-10T01:54:35;13.20;99.90
53045;DHT22;38930;52.766;6.884;2023-05-10T01:57:06;13.20;99.90
53045;DHT22;38930;52.766;6.884;2023-05-10T01:59:35;13.20;99.90
53045;DHT22;38930;52.766;6.884;2023-05-10T02:02:02;13.10;99.90
53045;DHT22;38930;52.766;6.884;2023-05-10T02:04:30;13.10;99.90
53045;DHT22;38930;52.766;6.884;2023-05-10T02:06:57;13.20;99.90
53045;DHT22;38930;52.766;6.884;2023-05-10T02:09:24;13.00;99.90
53045;DHT22;38930;52.766;6.884;2023-05-10T02:11:50;13.00;99.90
53045;DHT22;38930;52.766;6.884;2023-05-10T02:14:18;13.10;99.90
53045;DHT22;38930;52.766;6.884;2023-05-10T02:16:44;13.10;99.90
53045;DHT22;38930;52.766;6.884;2023-05-10T02:19:11;13.10;99.90
53045;DHT22;38930;52.766;6.884;2023-05-10T02:21:39;13.10;99.90
53045;DHT22;38930;52.766;6.884;2023-05-10T02:24:05;13.10;99.90
53045;DHT22;38930;52.766;6.884;2023-05-10T02:26:32;13.00;99.90
53045;DHT22;38930;52.766;6.884;2023-05-10T02:29:01;13.00;99.90
53045;DHT22;38930;52.766;6.884;2023-05-10T02:31:30;13.00;99.90
53045;DHT22;38930;52.766;6.884;2023-05-10T02:33:57;13.00;99.90
53045;DHT22;38930;52.766;6.884;2023-05-10T02:36:23;13.00;99.90
53045;DHT22;38930;52.766;6.884;2023-05-10T02:38:51;12.90;99.90
53045;DHT22;38930;52.766;6.884;2023-05-10T02:41:18;13.00;99.90
53045;DHT22;38930;52.766;6.884;2023-05-10T02:43:46;12.90;99.90
53045;DHT22;38930;52.766;6.884;2023-05-10T02:46:12;13.00;99.90
53045;DHT22;38930;52.766;6.884;2023-05-10T02:48:38;12.90;99.90
53045;DHT22;38930;52.766;6.884;2023-05-10T02:51:05;12.90;99.90
53045;DHT22;38930;52.766;6.884;2023-05-10T02:53:35;12.90;99.90
53045;DHT22;38930;52.766;6.884;2023-05-10T02:56:05;12.90;99.90
53045;DHT22;38930;52.766;6.884;2023-05-10T02:58:34;12.90;99.90
53045;DHT22;38930;52.766;6.884;2023-05-10T03:01:00;12.90;99.90
53045;DHT22;38930;52.766;6.884;2023-05-10T03:03:26;12.80;99.90
53045;DHT22;38930;52.766;6.884;2023-05-10T03:05:51;12.80;99.90
53045;DHT22;38930;52.766;6.884;2023-05-10T03:08:21;12.80;99.90
53045;DHT22;38930;52.766;6.884;2023-05-10T03:16:27;12.80;99.90
53045;DHT22;38930;52.766;6.884;2023-05-10T03:18:56;12.80;99.90
53045;DHT22;38930;52.766;6.884;2023-05-10T03:21:28;12.80;99.90
53045;DHT22;38930;52.766;6.884;2023-05-10T03:24:01;12.80;99.90
53045;DHT22;38930;52.766;6.884;2023-05-10T03:26:28;12.80;99.90
53045;DHT22;38930;52.766;6.884;2023-05-10T03:28:55;12.80;99.90
53045;DHT22;38930;52.766;6.884;2023-05-10T03:31:21;12.90;99.90
53045;DHT22;38930;52.766;6.884;2023-05-10T03:33:50;12.80;99.90
53045;DHT22;38930;52.766;6.884;2023-05-10T03:36:16;12.80;99.90
53045;DHT22;38930;52.766;6.884;2023-05-10T03:38:42;12.80;99.90
53045;DHT22;38930;52.766;6.884;2023-05-10T03:41:07;12.80;99.90
53045;DHT22;38930;52.766;6.884;2023-05-10T03:43:33;12.80;99.90
53045;DHT22;38930;52.766;6.884;2023-05-10T03:46:02;12.80;99.90
53045;DHT22;38930;52.766;6.884;2023-05-10T03:48:27;12.80;99.90
53045;DHT22;38930;52.766;6.884;2023-05-10T03:50:53;12.80;99.90
53045;DHT22;38930;52.766;6.884;2023-05-10T03:53:18;12.80;99.90
53045;DHT22;38930;52.766;6.884;2023-05-10T03:55:44;12.80;99.90
53045;DHT22;38930;52.766;6.884;2023-05-10T03:58:13;12.80;99.90
53045;DHT22;38930;52.766;6.884;2023-05-10T04:00:38;12.80;99.90
53045;DHT22;38930;52.766;6.884;2023-05-10T04:03:09;12.90;99.90
53045;DHT22;38930;52.766;6.884;2023-05-10T04:05:35;12.80;99.90
53045;DHT22;38930;52.766;6.884;2023-05-10T04:08:01;12.80;99.90
53045;DHT22;38930;52.766;6.884;2023-05-10T04:10:26;12.70;99.90
53045;DHT22;38930;52.766;6.884;2023-05-10T04:12:52;12.80;99.90
53045;DHT22;38930;52.766;6.884;2023-05-10T04:15:18;12.80;99.90
53045;DHT22;38930;52.766;6.884;2023-05-10T04:17:43;12.80;99.90
53045;DHT22;38930;52.766;6.884;2023-05-10T04:20:09;12.80;99.90
53045;DHT22;38930;52.766;6.884;2023-05-10T04:22:35;12.70;99.90
53045;DHT22;38930;52.766;6.884;2023-05-10T04:25:01;12.70;99.90
53045;DHT22;38930;52.766;6.884;2023-05-10T04:27:26;12.70;99.90
53045;DHT22;38930;52.766;6.884;2023-05-10T04:29:52;12.70;99.90
53045;DHT22;38930;52.766;6.884;2023-05-10T04:32:18;12.70;99.90
53045;DHT22;38930;52.766;6.884;2023-05-10T04:34:44;12.70;99.90
53045;DHT22;38930;52.766;6.884;2023-05-10T04:37:09;12.70;99.90
53045;DHT22;38930;52.766;6.884;2023-05-10T04:39:35;12.70;99.90
53045;DHT22;38930;52.766;6.884;2023-05-10T04:42:04;12.70;99.90
53045;DHT22;38930;52.766;6.884;2023-05-10T04:44:31;12.70;99.90
53045;DHT22;38930;52.766;6.884;2023-05-10T04:46:57;12.70;99.90
53045;DHT22;38930;52.766;6.884;2023-05-10T04:49:23;12.70;99.90
53045;DHT22;38930;52.766;6.884;2023-05-10T04:51:48;12.70;99.90
53045;DHT22;38930;52.766;6.884;2023-05-10T04:54:14;12.60;99.90
53045;DHT22;38930;52.766;6.884;2023-05-10T04:56:40;12.70;99.90
53045;DHT22;38930;52.766;6.884;2023-05-10T04:59:06;12.70;99.90
53045;DHT22;38930;52.766;6.884;2023-05-10T05:01:32;12.70;99.90
53045;DHT22;38930;52.766;6.884;2023-05-10T05:03:58;12.70;99.90
53045;DHT22;38930;52.766;6.884;2023-05-10T05:06:23;12.70;99.90
53045;DHT22;38930;52.766;6.884;2023-05-10T05:08:50;12.70;99.90
53045;DHT22;38930;52.766;6.884;2023-05-10T05:11:16;12.70;99.90
53045;DHT22;38930;52.766;6.884;2023-05-10T05:13:42;12.70;99.90
53045;DHT22;38930;52.766;6.884;2023-05-10T05:16:07;12.70;99.90
53045;DHT22;38930;52.766;6.884;2023-05-10T05:18:33;12.70;99.90
53045;DHT22;38930;52.766;6.884;2023-05-10T05:20:59;12.70;99.90
53045;DHT22;38930;52.766;6.884;2023-05-10T05:23:24;13.20;99.90
53045;DHT22;38930;52.766;6.884;2023-05-10T05:25:53;12.70;99.90
53045;DHT22;38930;52.766;6.884;2023-05-10T05:28:21;12.70;99.90
53045;DHT22;38930;52.766;6.884;2023-05-10T05:30:47;12.80;99.90
53045;DHT22;38930;52.766;6.884;2023-05-10T05:33:16;12.90;99.90
53045;DHT22;38930;52.766;6.884;2023-05-10T05:35:41;12.70;99.90
53045;DHT22;38930;52.766;6.884;2023-05-10T05:38:10;12.70;99.90
53045;DHT22;38930;52.766;6.884;2023-05-10T05:40:35;12.70;99.90
53045;DHT22;38930;52.766;6.884;2023-05-10T05:43:01;12.70;99.90
53045;DHT22;38930;52.766;6.884;2023-05-10T05:45:26;12.70;99.90
53045;DHT22;38930;52.766;6.884;2023-05-10T05:47:52;12.70;99.90
53045;DHT22;38930;52.766;6.884;2023-05-10T05:50:17;12.70;99.90
53045;DHT22;38930;52.766;6.884;2023-05-10T05:52:43;12.70;99.90
53045;DHT22;38930;52.766;6.884;2023-05-10T05:55:08;12.70;99.90
53045;DHT22;38930;52.766;6.884;2023-05-10T05:57:34;12.60;99.90
53045;DHT22;38930;52.766;6.884;2023-05-10T06:00:00;12.70;99.90
53045;DHT22;38930;52.766;6.884;2023-05-10T06:02:25;12.60;99.90
53045;DHT22;38930;52.766;6.884;2023-05-10T06:04:51;12.70;99.90
53045;DHT22;38930;52.766;6.884;2023-05-10T06:07:16;12.70;99.90
53045;DHT22;38930;52.766;6.884;2023-05-10T06:09:42;12.70;99.90
53045;DHT22;38930;52.766;6.884;2023-05-10T06:12:08;12.70;99.90
53045;DHT22;38930;52.766;6.884;2023-05-10T06:14:33;12.80;99.90
53045;DHT22;38930;52.766;6.884;2023-05-10T06:16:59;12.90;99.90
53045;DHT22;38930;52.766;6.884;2023-05-10T06:19:25;12.80;99.90
53045;DHT22;38930;52.766;6.884;2023-05-10T06:21:51;12.80;99.90
53045;DHT22;38930;52.766;6.884;2023-05-10T06:24:17;12.90;99.90
53045;DHT22;38930;52.766;6.884;2023-05-10T06:26:43;13.00;99.90
53045;DHT22;38930;52.766;6.884;2023-05-10T06:29:08;13.00;99.90
53045;DHT22;38930;52.766;6.884;2023-05-10T06:31:34;13.00;99.90
53045;DHT22;38930;52.766;6.884;2023-05-10T06:33:59;13.10;99.90
53045;DHT22;38930;52.766;6.884;2023-05-10T06:36:25;13.10;99.90
53045;DHT22;38930;52.766;6.884;2023-05-10T06:38:51;13.20;99.90
53045;DHT22;38930;52.766;6.884;2023-05-10T06:41:17;13.20;99.90
53045;DHT22;38930;52.766;6.884;2023-05-10T06:43:42;13.10;99.90
53045;DHT22;38930;52.766;6.884;2023-05-10T06:46:08;13.20;99.90
53045;DHT22;38930;52.766;6.884;2023-05-10T06:48:34;13.30;99.90
53045;DHT22;38930;52.766;6.884;2023-05-10T06:51:00;13.30;99.90
53045;DHT22;38930;52.766;6.884;2023-05-10T06:53:26;13.30;99.90
53045;DHT22;38930;52.766;6.884;2023-05-10T06:55:51;13.30;99.90
53045;DHT22;38930;52.766;6.884;2023-05-10T06:58:17;13.20;99.90
53045;DHT22;38930;52.766;6.884;2023-05-10T07:00:42;13.30;99.90
53045;DHT22;38930;52.766;6.884;2023-05-10T07:03:10;13.30;99.90
53045;DHT22;38930;52.766;6.884;2023-05-10T07:05:35;13.30;99.90
53045;DHT22;38930;52.766;6.884;2023-05-10T07:08:01;13.30;99.90
53045;DHT22;38930;52.766;6.884;2023-05-10T07:10:27;13.30;99.90
53045;DHT22;38930;52.766;6.884;2023-05-10T07:12:52;13.30;99.90
53045;DHT22;38930;52.766;6.884;2023-05-10T07:15:18;13.30;99.90
53045;DHT22;38930;52.766;6.884;2023-05-10T07:17:44;13.30;99.90
53045;DHT22;38930;52.766;6.884;2023-05-10T07:20:10;13.30;99.90
53045;DHT22;38930;52.766;6.884;2023-05-10T07:22:35;13.30;99.90
53045;DHT22;38930;52.766;6.884;2023-05-10T07:25:01;13.40;99.90
53045;DHT22;38930;52.766;6.884;2023-05-10T07:27:27;13.40;99.90
53045;DHT22;38930;52.766;6.884;2023-05-10T07:29:53;13.40;99.90
53045;DHT22;38930;52.766;6.884;2023-05-10T07:32:20;13.40;99.90
53045;DHT22;38930;52.766;6.884;2023-05-10T07:34:45;13.50;99.90
53045;DHT22;38930;52.766;6.884;2023-05-10T07:37:11;13.40;99.90
53045;DHT22;38930;52.766;6.884;2023-05-10T07:39:37;13.50;99.90
53045;DHT22;38930;52.766;6.884;2023-05-10T07:42:03;13.50;99.90
53045;DHT22;38930;52.766;6.884;2023-05-10T07:44:28;13.50;99.90
53045;DHT22;38930;52.766;6.884;2023-05-10T07:46:54;13.50;99.90
53045;DHT22;38930;52.766;6.884;2023-05-10T07:49:20;13.60;99.90
53045;DHT22;38930;52.766;6.884;2023-05-10T07:51:46;13.50;99.90
53045;DHT22;38930;52.766;6.884;2023-05-10T07:54:13;13.50;99.90
53045;DHT22;38930;52.766;6.884;2023-05-10T07:56:39;13.60;99.90
53045;DHT22;38930;52.766;6.884;2023-05-10T07:59:07;13.50;99.90
53045;DHT22;38930;52.766;6.884;2023-05-10T08:01:34;13.60;99.90
53045;DHT22;38930;52.766;6.884;2023-05-10T08:04:00;13.50;99.90
53045;DHT22;38930;52.766;6.884;2023-05-10T08:06:27;13.50;99.90
53045;DHT22;38930;52.766;6.884;2023-05-10T08:08:53;13.60;99.90
53045;DHT22;38930;52.766;6.884;2023-05-10T08:11:20;13.70;99.90
53045;DHT22;38930;52.766;6.884;2023-05-10T08:13:46;13.80;99.90
53045;DHT22;38930;52.766;6.884;2023-05-10T08:16:12;13.90;99.90
53045;DHT22;38930;52.766;6.884;2023-05-10T08:18:38;14.10;99.90
53045;DHT22;38930;52.766;6.884;2023-05-10T08:21:04;14.20;99.90
53045;DHT22;38930;52.766;6.884;2023-05-10T08:23:30;14.20;99.90
53045;DHT22;38930;52.766;6.884;2023-05-10T08:25:55;14.20;99.90
53045;DHT22;38930;52.766;6.884;2023-05-10T08:28:21;14.30;99.90
53045;DHT22;38930;52.766;6.884;2023-05-10T08:30:47;14.30;99.90
53045;DHT22;38930;52.766;6.884;2023-05-10T08:33:12;14.40;99.90
53045;DHT22;38930;52.766;6.884;2023-05-10T08:35:38;14.40;99.90
53045;DHT22;38930;52.766;6.884;2023-05-10T08:38:03;14.40;99.90
53045;DHT22;38930;52.766;6.884;2023-05-10T08:40:29;14.40;99.90
53045;DHT22;38930;52.766;6.884;2023-05-10T08:42:59;14.30;99.90
53045;DHT22;38930;52.766;6.884;2023-05-10T08:45:27;14.20;99.90
53045;DHT22;38930;52.766;6.884;2023-05-10T08:47:54;14.10;99.90
53045;DHT22;38930;52.766;6.884;2023-05-10T08:50:20;14.10;99.90
53045;DHT22;38930;52.766;6.884;2023-05-10T08:52:48;14.10;99.90
53045;DHT22;38930;52.766;6.884;2023-05-10T08:55:16;14.30;99.90
53045;DHT22;38930;52.766;6.884;2023-05-10T08:57:42;14.20;99.90
53045;DHT22;38930;52.766;6.884;2023-05-10T09:00:08;14.20;99.90
53045;DHT22;38930;52.766;6.884;2023-05-10T09:02:35;14.20;99.90
53045;DHT22;38930;52.766;6.884;2023-05-10T09:05:02;14.20;99.90
53045;DHT22;38930;52.766;6.884;2023-05-10T09:07:30;14.20;99.90
53045;DHT22;38930;52.766;6.884;2023-05-10T09:09:56;14.40;99.90
53045;DHT22;38930;52.766;6.884;2023-05-10T09:12:23;14.30;99.90
53045;DHT22;38930;52.766;6.884;2023-05-10T09:14:50;14.30;99.90
53045;DHT22;38930;52.766;6.884;2023-05-10T09:17:17;14.40;99.90
53045;DHT22;38930;52.766;6.884;2023-05-10T09:19:45;14.40;99.90
53045;DHT22;38930;52.766;6.884;2023-05-10T09:22:11;14.40;99.90
53045;DHT22;38930;52.766;6.884;2023-05-10T09:24:36;14.40;99.90
53045;DHT22;38930;52.766;6.884;2023-05-10T09:27:07;14.40;99.90
53045;DHT22;38930;52.766;6.884;2023-05-10T09:29:41;14.40;99.90
53045;DHT22;38930;52.766;6.884;2023-05-10T09:32:07;14.30;99.90
53045;DHT22;38930;52.766;6.884;2023-05-10T09:34:32;14.20;99.90
53045;DHT22;38930;52.766;6.884;2023-05-10T09:37:02;14.20;99.90
53045;DHT22;38930;52.766;6.884;2023-05-10T09:39:36;14.30;99.90
53045;DHT22;38930;52.766;6.884;2023-05-10T09:42:03;14.40;99.90
53045;DHT22;38930;52.766;6.884;2023-05-10T09:44:30;14.40;99.90
53045;DHT22;38930;52.766;6.884;2023-05-10T09:46:56;14.50;99.90
53045;DHT22;38930;52.766;6.884;2023-05-10T09:49:22;14.60;99.90
53045;DHT22;38930;52.766;6.884;2023-05-10T09:52:01;14.70;99.90
53045;DHT22;38930;52.766;6.884;2023-05-10T09:54:27;14.70;99.90
53045;DHT22;38930;52.766;6.884;2023-05-10T09:56:53;14.90;99.90
53045;DHT22;38930;52.766;6.884;2023-05-10T09:59:18;15.00;99.90
53045;DHT22;38930;52.766;6.884;2023-05-10T10:01:49;15.10;99.90
53045;DHT22;38930;52.766;6.884;2023-05-10T10:04:15;15.30;99.90
53045;DHT22;38930;52.766;6.884;2023-05-10T10:06:41;15.50;99.90
53045;DHT22;38930;52.766;6.884;2023-05-10T10:09:07;15.60;99.90
53045;DHT22;38930;52.766;6.884;2023-05-10T10:11:36;15.60;99.90
53045;DHT22;38930;52.766;6.884;2023-05-10T10:14:02;15.70;99.90
53045;DHT22;38930;52.766;6.884;2023-05-10T10:16:31;15.70;99.90
53045;DHT22;38930;52.766;6.884;2023-05-10T10:18:57;15.70;99.90
53045;DHT22;38930;52.766;6.884;2023-05-10T10:21:23;15.70;99.90
53045;DHT22;38930;52.766;6.884;2023-05-10T10:23:49;15.70;99.90
53045;DHT22;38930;52.766;6.884;2023-05-10T10:26:17;15.70;99.90
53045;DHT22;38930;52.766;6.884;2023-05-10T10:29:33;15.80;99.90
53045;DHT22;38930;52.766;6.884;2023-05-10T10:31:46;15.60;99.90
53045;DHT22;38930;52.766;6.884;2023-05-10T10:34:28;15.60;99.90
53045;DHT22;38930;52.766;6.884;2023-05-10T10:36:56;15.60;99.90
53045;DHT22;38930;52.766;6.884;2023-05-10T10:39:23;15.80;99.90
53045;DHT22;38930;52.766;6.884;2023-05-10T10:41:52;15.80;99.90
53045;DHT22;38930;52.766;6.884;2023-05-10T10:52:23;15.80;99.90
53045;DHT22;38930;52.766;6.884;2023-05-10T10:55:08;15.80;99.90
53045;DHT22;38930;52.766;6.884;2023-05-10T10:57:46;15.80;99.90
53045;DHT22;38930;52.766;6.884;2023-05-10T11:02:51;15.70;99.90
53045;DHT22;38930;52.766;6.884;2023-05-10T11:07:56;15.70;99.90
53045;DHT22;38930;52.766;6.884;2023-05-10T11:10:24;15.50;99.90
53045;DHT22;38930;52.766;6.884;2023-05-10T11:12:53;15.50;99.90
53045;DHT22;38930;52.766;6.884;2023-05-10T11:15:35;15.40;99.90
53045;DHT22;38930;52.766;6.884;2023-05-10T11:18:36;15.50;99.90
53045;DHT22;38930;52.766;6.884;2023-05-10T11:21:02;15.50;99.90
53045;DHT22;38930;52.766;6.884;2023-05-10T11:23:32;15.60;99.90
53045;DHT22;38930;52.766;6.884;2023-05-10T11:25:59;15.70;99.90
53045;DHT22;38930;52.766;6.884;2023-05-10T11:28:26;15.80;99.90
53045;DHT22;38930;52.766;6.884;2023-05-10T11:30:52;15.80;99.90
53045;DHT22;38930;52.766;6.884;2023-05-10T11:33:19;16.00;99.90
53045;DHT22;38930;52.766;6.884;2023-05-10T11:35:45;16.10;99.90
53045;DHT22;38930;52.766;6.884;2023-05-10T11:38:12;16.20;99.90
53045;DHT22;38930;52.766;6.884;2023-05-10T11:40:39;16.20;99.90
53045;DHT22;38930;52.766;6.884;2023-05-10T11:43:05;16.20;99.90
53045;DHT22;38930;52.766;6.884;2023-05-10T11:45:34;16.50;99.90
53045;DHT22;38930;52.766;6.884;2023-05-10T11:48:01;16.30;99.90
53045;DHT22;38930;52.766;6.884;2023-05-10T11:50:27;16.50;99.90
53045;DHT22;38930;52.766;6.884;2023-05-10T11:52:57;16.20;99.90
53045;DHT22;38930;52.766;6.884;2023-05-10T11:55:23;16.20;99.90
53045;DHT22;38930;52.766;6.884;2023-05-10T11:57:54;16.20;99.90
53045;DHT22;38930;52.766;6.884;2023-05-10T12:00:20;16.20;99.90
53045;DHT22;38930;52.766;6.884;2023-05-10T12:02:46;16.20;99.90
53045;DHT22;38930;52.766;6.884;2023-05-10T12:05:12;16.30;99.90
53045;DHT22;38930;52.766;6.884;2023-05-10T12:07:37;16.30;99.90
53045;DHT22;38930;52.766;6.884;2023-05-10T12:10:10;16.40;99.90
53045;DHT22;38930;52.766;6.884;2023-05-10T12:12:46;16.40;99.90
53045;DHT22;38930;52.766;6.884;2023-05-10T12:15:21;16.40;99.90
53045;DHT22;38930;52.766;6.884;2023-05-10T12:17:47;16.50;99.90
53045;DHT22;38930;52.766;6.884;2023-05-10T12:22:43;16.40;99.90
53045;DHT22;38930;52.766;6.884;2023-05-10T12:25:09;16.30;99.90
53045;DHT22;38930;52.766;6.884;2023-05-10T12:27:35;16.20;99.90
53045;DHT22;38930;52.766;6.884;2023-05-10T12:30:02;16.10;99.90
53045;DHT22;38930;52.766;6.884;2023-05-10T12:32:40;16.00;99.90
53045;DHT22;38930;52.766;6.884;2023-05-10T12:35:07;16.10;99.90
53045;DHT22;38930;52.766;6.884;2023-05-10T12:37:33;15.90;99.90
53045;DHT22;38930;52.766;6.884;2023-05-10T12:40:01;15.80;99.90
53045;DHT22;38930;52.766;6.884;2023-05-10T12:42:27;15.80;99.90
53045;DHT22;38930;52.766;6.884;2023-05-10T12:44:56;15.80;99.90
53045;DHT22;38930;52.766;6.884;2023-05-10T12:47:22;15.80;99.90
53045;DHT22;38930;52.766;6.884;2023-05-10T12:49:48;15.80;99.90
53045;DHT22;38930;52.766;6.884;2023-05-10T12:52:13;15.80;99.90
53045;DHT22;38930;52.766;6.884;2023-05-10T12:54:39;15.90;99.90
53045;DHT22;38930;52.766;6.884;2023-05-10T12:57:04;15.90;99.90
53045;DHT22;38930;52.766;6.884;2023-05-10T12:59:30;15.90;99.90
53045;DHT22;38930;52.766;6.884;2023-05-10T13:01:57;16.00;99.90
53045;DHT22;38930;52.766;6.884;2023-05-10T13:04:23;16.30;99.90
53045;DHT22;38930;52.766;6.884;2023-05-10T13:06:48;16.10;99.90
53045;DHT22;38930;52.766;6.884;2023-05-10T13:09:14;16.10;99.90
53045;DHT22;38930;52.766;6.884;2023-05-10T13:11:40;16.20;99.90
53045;DHT22;38930;52.766;6.884;2023-05-10T13:14:06;16.20;99.90
53045;DHT22;38930;52.766;6.884;2023-05-10T13:16:31;16.30;99.90
53045;DHT22;38930;52.766;6.884;2023-05-10T13:18:57;16.50;99.90
53045;DHT22;38930;52.766;6.884;2023-05-10T13:21:23;16.60;99.90
53045;DHT22;38930;52.766;6.884;2023-05-10T13:23:50;16.60;99.90
53045;DHT22;38930;52.766;6.884;2023-05-10T13:26:16;16.50;99.90
53045;DHT22;38930;52.766;6.884;2023-05-10T13:28:41;16.50;99.90
53045;DHT22;38930;52.766;6.884;2023-05-10T13:31:07;16.50;99.90
53045;DHT22;38930;52.766;6.884;2023-05-10T13:33:33;16.50;99.90
53045;DHT22;38930;52.766;6.884;2023-05-10T13:35:59;16.50;99.90
53045;DHT22;38930;52.766;6.884;2023-05-10T13:38:24;16.50;99.90
53045;DHT22;38930;52.766;6.884;2023-05-10T13:40:50;16.50;99.90
53045;DHT22;38930;52.766;6.884;2023-05-10T13:43:18;16.60;99.90
53045;DHT22;38930;52.766;6.884;2023-05-10T13:45:44;16.70;99.90
53045;DHT22;38930;52.766;6.884;2023-05-10T13:48:09;16.70;99.90
53045;DHT22;38930;52.766;6.884;2023-05-10T13:50:35;16.70;99.90
53045;DHT22;38930;52.766;6.884;2023-05-10T13:53:01;16.80;99.90
53045;DHT22;38930;52.766;6.884;2023-05-10T13:55:26;16.90;99.90
53045;DHT22;38930;52.766;6.884;2023-05-10T13:57:52;17.00;99.90
53045;DHT22;38930;52.766;6.884;2023-05-10T14:00:18;17.00;99.90
53045;DHT22;38930;52.766;6.884;2023-05-10T14:02:43;17.10;99.90
53045;DHT22;38930;52.766;6.884;2023-05-10T14:05:09;16.90;99.90
53045;DHT22;38930;52.766;6.884;2023-05-10T14:07:35;17.00;99.90
53045;DHT22;38930;52.766;6.884;2023-05-10T14:10:00;17.10;99.90
53045;DHT22;38930;52.766;6.884;2023-05-10T14:12:26;17.00;99.90
53045;DHT22;38930;52.766;6.884;2023-05-10T14:14:52;17.10;99.90
53045;DHT22;38930;52.766;6.884;2023-05-10T14:17:18;17.10;99.90
53045;DHT22;38930;52.766;6.884;2023-05-10T14:19:43;17.10;99.90
53045;DHT22;38930;52.766;6.884;2023-05-10T14:22:09;17.10;99.90
53045;DHT22;38930;52.766;6.884;2023-05-10T14:24:34;16.90;99.90
53045;DHT22;38930;52.766;6.884;2023-05-10T14:27:00;17.00;99.90
53045;DHT22;38930;52.766;6.884;2023-05-10T14:29:26;16.90;99.90
53045;DHT22;38930;52.766;6.884;2023-05-10T14:31:51;16.80;99.90
53045;DHT22;38930;52.766;6.884;2023-05-10T14:34:17;16.80;99.90
53045;DHT22;38930;52.766;6.884;2023-05-10T14:36:42;16.70;99.90
53045;DHT22;38930;52.766;6.884;2023-05-10T14:39:08;16.70;99.90
53045;DHT22;38930;52.766;6.884;2023-05-10T14:41:35;16.70;99.90
53045;DHT22;38930;52.766;6.884;2023-05-10T14:44:01;16.80;99.90
53045;DHT22;38930;52.766;6.884;2023-05-10T14:46:28;16.80;99.90
53045;DHT22;38930;52.766;6.884;2023-05-10T14:48:55;16.80;99.90
53045;DHT22;38930;52.766;6.884;2023-05-10T14:51:20;16.80;99.90
53045;DHT22;38930;52.766;6.884;2023-05-10T14:53:50;16.80;99.90
53045;DHT22;38930;52.766;6.884;2023-05-10T14:56:16;16.70;99.90
53045;DHT22;38930;52.766;6.884;2023-05-10T14:58:41;16.80;99.90
53045;DHT22;38930;52.766;6.884;2023-05-10T15:01:07;16.80;99.90
53045;DHT22;38930;52.766;6.884;2023-05-10T15:03:32;16.80;99.90
53045;DHT22;38930;52.766;6.884;2023-05-10T15:05:58;16.90;99.90
53045;DHT22;38930;52.766;6.884;2023-05-10T15:08:27;16.80;99.90
53045;DHT22;38930;52.766;6.884;2023-05-10T15:10:53;16.80;99.90
53045;DHT22;38930;52.766;6.884;2023-05-10T15:13:20;16.70;99.90
53045;DHT22;38930;52.766;6.884;2023-05-10T15:15:46;16.80;99.90
53045;DHT22;38930;52.766;6.884;2023-05-10T15:18:11;16.70;99.90
53045;DHT22;38930;52.766;6.884;2023-05-10T15:20:37;16.60;99.90
53045;DHT22;38930;52.766;6.884;2023-05-10T15:23:03;16.60;99.90
53045;DHT22;38930;52.766;6.884;2023-05-10T15:25:28;16.70;99.90
53045;DHT22;38930;52.766;6.884;2023-05-10T15:27:54;16.60;99.90
53045;DHT22;38930;52.766;6.884;2023-05-10T15:30:20;16.70;99.90
53045;DHT22;38930;52.766;6.884;2023-05-10T15:32:46;16.60;99.90
53045;DHT22;38930;52.766;6.884;2023-05-10T15:35:11;16.60;99.90
53045;DHT22;38930;52.766;6.884;2023-05-10T15:37:37;16.60;99.90
53045;DHT22;38930;52.766;6.884;2023-05-10T15:40:03;16.60;99.90
53045;DHT22;38930;52.766;6.884;2023-05-10T15:42:30;16.60;99.90
53045;DHT22;38930;52.766;6.884;2023-05-10T15:44:56;16.60;99.90
53045;DHT22;38930;52.766;6.884;2023-05-10T15:47:21;16.60;99.90
53045;DHT22;38930;52.766;6.884;2023-05-10T15:49:47;16.60;99.90
53045;DHT22;38930;52.766;6.884;2023-05-10T15:52:13;16.60;99.90
53045;DHT22;38930;52.766;6.884;2023-05-10T15:54:38;16.60;99.90
53045;DHT22;38930;52.766;6.884;2023-05-10T15:57:04;16.60;99.90
53045;DHT22;38930;52.766;6.884;2023-05-10T15:59:30;16.50;99.90
53045;DHT22;38930;52.766;6.884;2023-05-10T16:01:56;16.50;99.90
53045;DHT22;38930;52.766;6.884;2023-05-10T16:04:22;16.50;99.90